Terminal Aerodrome Forecast
Issued by NWS

Home | Current Version | Previous Version | Text Only | Print | Product List | Glossary On
Versions: 1 2 3 4 5 6 7 8 9 10 11 12 13 14 15 16 17 18 19 20 21 22 23 24 25 26 27 28 29 30
000
FTUS45 KRIW 252300
TAFPNA
TAF
KPNA 252331Z 2600/2624 31010KT 2SM -SN SCT007 OVC015
     FM260300 29016G24KT 3SM -SN SCT008 OVC016
     FM260900 29014KT 4SM -SN SCT013 OVC020
     FM261400 29009KT P6SM VCSH SCT015 OVC035
     FM261900 31016KT P6SM SCT050 BKN100
      AMD LTD TO CLD VIS AND WIND=

USA.gov is the U.S. government's official web portal to all federal, state and local government web resources and services.